Time;durP1;ratioP1;P1;durP2;ratioP2;P2;SDS_P1;SDS_P2;PMS_P1;PMS_P2;Temp;Humidity;BMP_temperature;BMP_pressure;BME280_temperature;BME280_humidity;BME280_pressure;Samples;Min_cycle;Max_cycle;Signal;HPM_P1;HPM_P2
2022/02/22 00:01:39;;;;;;;2.60;0.85;;;;;;;26.18;27.41;96473.75;5000094;28;20041;-28
2022/02/22 00:04:05;;;;;;;2.78;0.90;;;;;;;26.18;27.28;96481.63;4996530;28;20068;-30
2022/02/22 00:06:30;;;;;;;3.72;1.10;;;;;;;26.18;27.14;96471.13;4994783;28;20024;-31
2022/02/22 00:08:56;;;;;;;2.10;1.00;;;;;;;26.17;27.27;96480.78;4997976;28;20678;-28
2022/02/22 00:11:22;;;;;;;1.50;0.85;;;;;;;26.17;27.58;96485.19;4996599;28;20037;-30
2022/02/22 00:13:48;;;;;;;2.08;0.82;;;;;;;26.17;27.20;96472.91;4997593;28;20044;-29
2022/02/22 00:16:13;;;;;;;3.35;1.23;;;;;;;26.17;27.03;96474.69;4999191;28;20061;-28
2022/02/22 00:18:39;;;;;;;1.13;0.63;;;;;;;26.17;27.21;96472.06;5003960;28;20097;-28
2022/02/22 00:21:04;;;;;;;3.25;0.82;;;;;;;26.17;27.20;96480.78;5000813;28;20033;-28
2022/02/22 00:23:29;;;;;;;2.42;1.08;;;;;;;26.17;26.99;96493.06;4998883;28;20025;-29
2022/02/22 00:25:55;;;;;;;2.60;1.00;;;;;;;26.16;27.07;96496.63;4998661;28;20034;-30
2022/02/22 00:28:20;;;;;;;1.80;0.95;;;;;;;26.16;26.96;96492.22;4996760;28;20064;-29
2022/02/22 00:30:47;;;;;;;2.33;0.88;;;;;;;26.16;26.99;96486.13;4999309;28;20029;-28
2022/02/22 00:33:13;;;;;;;1.83;0.77;;;;;;;26.15;26.95;96492.28;4999207;28;20344;-27
2022/02/22 00:35:38;;;;;;;2.10;1.08;;;;;;;26.15;26.92;96492.28;4997769;28;20038;-29
2022/02/22 00:38:04;;;;;;;2.47;1.10;;;;;;;26.16;26.96;96504.50;5005531;28;20025;-30
2022/02/22 00:40:29;;;;;;;2.67;1.10;;;;;;;26.16;26.89;96499.25;5003322;28;20038;-29
2022/02/22 00:42:55;;;;;;;2.28;1.10;;;;;;;26.14;26.93;96501.13;5002992;28;20033;-30
2022/02/22 00:45:20;;;;;;;1.75;0.88;;;;;;;26.14;26.89;96509.84;4997170;28;20029;-29
2022/02/22 00:47:45;;;;;;;2.35;0.70;;;;;;;26.14;26.88;96511.63;4996938;28;20041;-28
2022/02/22 00:50:11;;;;;;;2.33;0.95;;;;;;;26.13;26.95;96521.31;4978306;28;20038;-29
2022/02/22 00:52:36;;;;;;;2.70;0.85;;;;;;;26.14;26.87;96536.13;4997453;28;20045;-29
2022/02/22 00:55:02;;;;;;;1.50;0.88;;;;;;;26.13;26.85;96530.94;5000523;28;20025;-28
2022/02/22 00:57:27;;;;;;;1.50;0.80;;;;;;;26.13;26.98;96536.19;5004423;28;20049;-27
2022/02/22 00:59:52;;;;;;;2.55;1.00;;;;;;;26.14;26.86;96543.13;5004162;28;20026;-31
2022/02/22 01:02:18;;;;;;;3.30;1.02;;;;;;;26.12;26.82;96555.53;5006598;28;20713;-28
2022/02/22 01:04:43;;;;;;;3.20;0.80;;;;;;;26.13;26.75;96551.97;5006056;28;20033;-29
2022/02/22 01:07:16;;;;;;;2.13;0.82;;;;;;;26.13;26.78;96551.97;5005241;28;20075;-29
2022/02/22 01:09:42;;;;;;;2.13;0.55;;;;;;;26.11;26.82;96544.16;5007887;28;20037;-32
2022/02/22 01:12:09;;;;;;;3.58;1.10;;;;;;;26.10;26.86;96559.06;5005728;28;20070;-29
2022/02/22 01:14:34;;;;;;;4.68;0.90;;;;;;;26.12;26.77;96572.09;5005859;28;21030;-30
2022/02/22 01:16:59;;;;;;;2.42;1.02;;;;;;;26.11;26.77;96567.81;5004441;28;20037;-27
2022/02/22 01:19:25;;;;;;;2.55;1.10;;;;;;;26.10;26.89;96574.81;5005848;28;20029;-29
2022/02/22 01:21:50;;;;;;;2.25;0.77;;;;;;;26.10;26.80;96579.25;5003089;28;20036;-31
2022/02/22 01:24:16;;;;;;;3.20;0.80;;;;;;;26.09;26.80;96578.38;5008230;28;20264;-32
2022/02/22 01:26:41;;;;;;;1.50;0.77;;;;;;;26.09;26.73;96582.81;5001077;28;20021;-30
2022/02/22 01:29:06;;;;;;;1.42;0.80;;;;;;;26.09;26.75;96583.63;5006262;28;20039;-28
2022/02/22 01:31:32;;;;;;;2.63;1.00;;;;;;;26.08;26.82;96587.22;5012811;28;20029;-29
2022/02/22 01:33:57;;;;;;;1.95;0.70;;;;;;;26.08;26.90;96595.09;5010824;28;20029;-30
2022/02/22 01:36:23;;;;;;;3.53;0.90;;;;;;;26.07;26.77;96606.53;5012181;28;20534;-28
2022/02/22 01:38:51;;;;;;;1.55;0.68;;;;;;;26.07;26.91;96611.78;5012419;28;20028;-29
2022/02/22 01:41:17;;;;;;;2.10;1.20;;;;;;;26.07;26.74;96603.91;5014854;28;20025;-29
2022/02/22 01:43:42;;;;;;;2.90;0.85;;;;;;;26.06;26.89;96609.25;5018660;28;20033;-28
2022/02/22 01:46:07;;;;;;;1.70;0.70;;;;;;;26.06;26.64;96606.63;5010908;28;20546;-28
2022/02/22 01:48:33;;;;;;;3.85;0.80;;;;;;;26.06;26.92;96609.25;5006304;28;21403;-29
2022/02/22 01:50:58;;;;;;;1.45;0.63;;;;;;;26.05;26.88;96605.75;5006817;28;20033;-29
2022/02/22 01:53:24;;;;;;;2.28;1.10;;;;;;;26.05;26.73;96613.63;5011806;28;20037;-28
2022/02/22 01:55:51;;;;;;;3.42;0.85;;;;;;;26.05;26.78;96608.38;5010966;28;20906;-30
2022/02/22 01:58:16;;;;;;;1.67;0.80;;;;;;;26.06;26.73;96606.63;4994967;28;20025;-29
2022/02/22 02:00:43;;;;;;;1.60;0.77;;;;;;;26.05;26.67;96618.88;5007664;28;20081;-28
2022/02/22 02:03:09;;;;;;;1.45;0.60;;;;;;;26.05;26.91;96621.50;5009597;28;20118;-31
2022/02/22 02:05:34;;;;;;;2.90;0.70;;;;;;;26.05;26.81;96629.38;5011643;28;20026;-30
2022/02/22 02:08:00;;;;;;;1.65;0.88;;;;;;;26.04;26.80;96617.19;4991595;28;20045;-29
2022/02/22 02:10:27;;;;;;;2.30;0.77;;;;;;;26.03;26.80;96615.50;5007868;28;20081;-29
2022/02/22 02:12:52;;;;;;;2.13;0.88;;;;;;;26.04;26.78;96622.44;5009461;28;20160;-30
2022/02/22 02:15:17;;;;;;;1.23;0.57;;;;;;;26.03;26.73;96620.75;5010629;28;20723;-28
2022/02/22 02:17:43;;;;;;;3.15;0.80;;;;;;;26.03;26.80;96626.00;5010133;28;20697;-32
2022/02/22 02:20:09;;;;;;;1.58;0.80;;;;;;;26.03;26.96;96636.53;5009296;28;20038;-30
2022/02/22 02:22:35;;;;;;;1.75;0.80;;;;;;;26.02;26.83;96640.09;5009491;28;20033;-31
2022/02/22 02:25:01;;;;;;;1.58;0.73;;;;;;;26.02;26.69;96629.59;5006173;28;20072;-29
2022/02/22 02:27:26;;;;;;;2.38;0.85;;;;;;;26.02;26.89;96637.47;5004169;28;20029;-28
2022/02/22 02:29:52;;;;;;;2.67;0.88;;;;;;;26.01;26.72;96638.38;5010691;28;20026;-29
2022/02/22 02:32:17;;;;;;;1.40;0.77;;;;;;;26.01;26.72;96640.16;5010326;28;20040;-28
2022/02/22 02:34:42;;;;;;;1.77;0.60;;;;;;;25.98;26.77;96638.56;5009045;28;20055;-29
2022/02/22 02:37:08;;;;;;;1.60;0.73;;;;;;;26.01;26.73;96643.63;5009848;28;20021;-33
2022/02/22 02:39:33;;;;;;;1.55;0.65;;;;;;;26.01;26.69;96648.03;5007323;28;20033;-29
2022/02/22 02:41:59;;;;;;;1.27;0.50;;;;;;;26.00;26.71;96647.19;5004796;28;20041;-28
2022/02/22 02:44:24;;;;;;;1.58;0.80;;;;;;;26.01;26.84;96648.03;5001233;28;20119;-29
2022/02/22 02:46:50;;;;;;;2.38;0.70;;;;;;;25.99;26.85;96645.50;5001317;28;20034;-29
2022/02/22 02:49:16;;;;;;;1.65;0.60;;;;;;;25.98;26.81;96646.44;5003229;28;20101;-28
2022/02/22 02:51:41;;;;;;;1.40;0.70;;;;;;;25.98;26.70;96646.44;5003762;28;20040;-29
2022/02/22 02:54:07;;;;;;;1.85;0.70;;;;;;;25.98;26.94;96654.31;5005898;28;20033;-31
2022/02/22 02:56:33;;;;;;;2.10;0.88;;;;;;;25.97;26.89;96657.84;5004185;28;20064;-29
2022/02/22 02:59:02;;;;;;;3.97;0.90;;;;;;;25.98;26.85;96664.81;5010418;28;20076;-31
2022/02/22 03:01:29;;;;;;;2.55;0.70;;;;;;;25.97;26.80;96668.34;5005144;28;20029;-30
2022/02/22 03:03:54;;;;;;;1.50;0.80;;;;;;;25.97;26.64;96676.22;5005460;28;20034;-28
2022/02/22 03:06:19;;;;;;;0.90;0.60;;;;;;;25.97;26.82;96676.22;5004362;28;20040;-29
2022/02/22 03:08:45;;;;;;;1.92;1.02;;;;;;;25.96;26.83;96678.03;5003809;28;20049;-32
2022/02/22 03:11:10;;;;;;;1.70;0.70;;;;;;;25.96;26.79;96687.66;5006651;28;20030;-28
2022/02/22 03:13:36;;;;;;;1.48;0.82;;;;;;;25.95;26.73;96678.97;5007645;28;20510;-29
2022/02/22 03:16:02;;;;;;;2.00;1.02;;;;;;;25.94;26.76;96676.44;5006212;28;20032;-28
2022/02/22 03:18:27;;;;;;;2.72;0.90;;;;;;;25.95;26.70;96686.00;5006125;28;20036;-31
2022/02/22 03:20:52;;;;;;;4.90;0.90;;;;;;;25.94;26.78;96689.56;5006089;28;20021;-30
2022/02/22 03:23:19;;;;;;;2.00;0.55;;;;;;;25.94;26.68;96695.63;5005595;28;20025;-28
2022/02/22 03:25:45;;;;;;;2.03;0.95;;;;;;;25.94;26.77;96697.44;5005379;28;20037;-29
2022/02/22 03:28:11;;;;;;;1.13;0.60;;;;;;;25.94;26.79;96700.06;5002061;28;20030;-28
2022/02/22 03:30:36;;;;;;;0.95;0.68;;;;;;;25.93;26.82;96704.44;5010225;28;20072;-28
2022/02/22 03:33:02;;;;;;;2.28;0.65;;;;;;;25.93;26.90;96708.88;5008869;28;20037;-28
2022/02/22 03:35:28;;;;;;;3.10;0.95;;;;;;;25.93;26.53;96706.25;4999317;28;20040;-29
2022/02/22 03:37:53;;;;;;;1.65;0.60;;;;;;;25.93;26.83;96714.13;5001519;28;20060;-29
2022/02/22 03:40:19;;;;;;;1.92;0.80;;;;;;;25.93;26.64;96719.38;5006362;28;20036;-29
2022/02/22 03:42:44;;;;;;;2.35;0.80;;;;;;;25.92;26.45;96713.25;5004863;28;20025;-29
2022/02/22 03:45:10;;;;;;;1.42;0.60;;;;;;;25.92;26.76;96728.16;5004573;28;20036;-30
2022/02/22 03:47:37;;;;;;;1.13;0.55;;;;;;;25.92;26.79;96739.50;5005494;28;20037;-28
2022/02/22 03:50:04;;;;;;;2.22;0.85;;;;;;;25.91;26.70;96727.31;4998814;28;20346;-27
2022/02/22 03:52:30;;;;;;;2.47;0.63;;;;;;;25.92;26.75;96733.41;5005344;28;20060;-29
2022/02/22 03:54:56;;;;;;;2.05;1.00;;;;;;;25.92;26.87;96736.88;5005129;28;20399;-28
2022/02/22 03:57:21;;;;;;;1.65;0.70;;;;;;;25.91;26.69;96734.34;5001854;28;20118;-28
2022/02/22 03:59:47;;;;;;;2.08;0.90;;;;;;;25.91;26.74;96742.22;4997128;28;20021;-29
2022/02/22 04:02:12;;;;;;;1.70;0.70;;;;;;;25.89;26.90;96731.78;4996775;28;20021;-28
2022/02/22 04:04:37;;;;;;;1.63;0.90;;;;;;;25.91;26.75;96739.59;4997969;28;20033;-29
2022/02/22 04:07:03;;;;;;;2.00;0.60;;;;;;;25.89;26.92;96736.22;4996725;28;20025;-29
2022/02/22 04:09:28;;;;;;;1.67;0.38;;;;;;;25.89;26.85;96754.59;4995854;28;20536;-30
2022/02/22 04:11:54;;;;;;;1.83;0.57;;;;;;;25.90;26.71;96751.03;4999780;28;20683;-29
2022/02/22 04:14:19;;;;;;;2.10;0.82;;;;;;;25.89;26.75;96762.47;4999095;28;20037;-29
2022/02/22 04:16:44;;;;;;;1.00;0.43;;;;;;;25.89;26.75;96770.34;4998847;28;20025;-31
2022/02/22 04:19:10;;;;;;;1.40;0.50;;;;;;;25.87;26.78;96775.69;5001919;28;20657;-29
2022/02/22 04:21:36;;;;;;;6.03;1.05;;;;;;;25.89;26.81;96786.09;5004150;28;20118;-29
2022/02/22 04:24:01;;;;;;;1.75;0.70;;;;;;;25.88;26.74;96794.88;4983477;28;20056;-29
2022/02/22 04:26:27;;;;;;;2.55;0.70;;;;;;;25.88;26.76;96794.88;4998104;28;20037;-30
2022/02/22 04:28:54;;;;;;;2.80;0.55;;;;;;;25.88;26.83;96794.88;4998424;28;20116;-29
2022/02/22 04:31:19;;;;;;;1.30;0.68;;;;;;;25.87;26.78;96795.81;5002548;28;20116;-28
2022/02/22 04:33:45;;;;;;;1.33;0.60;;;;;;;25.86;26.80;96808.13;5007529;28;20032;-28
2022/02/22 04:36:10;;;;;;;3.92;0.82;;;;;;;25.86;26.73;96817.75;5011421;28;20112;-27
2022/02/22 04:38:35;;;;;;;1.20;0.57;;;;;;;25.86;26.84;96812.50;5012600;28;20090;-29
2022/02/22 04:41:01;;;;;;;1.65;0.70;;;;;;;25.86;26.84;96812.50;5014629;28;20025;-29
2022/02/22 04:43:26;;;;;;;1.35;0.70;;;;;;;25.85;26.78;96816.91;4994692;28;20491;-30
2022/02/22 04:45:52;;;;;;;2.42;0.55;;;;;;;25.85;26.81;96816.91;5012082;28;20547;-29
2022/02/22 04:48:17;;;;;;;1.65;0.88;;;;;;;25.85;26.90;96821.31;5013664;28;20029;-29
2022/02/22 04:50:43;;;;;;;1.27;0.75;;;;;;;25.83;26.88;96827.47;5010695;28;20930;-28
2022/02/22 04:53:09;;;;;;;1.30;0.50;;;;;;;25.85;26.90;96826.56;5010580;28;20032;-28
2022/02/22 04:55:35;;;;;;;4.15;0.90;;;;;;;25.83;26.77;96831.91;5008577;28;20028;-29
2022/02/22 04:58:00;;;;;;;1.02;0.47;;;;;;;25.82;26.68;96831.03;5010956;28;20052;-28
2022/02/22 05:00:26;;;;;;;1.38;0.55;;;;;;;25.82;26.84;96823.16;5010708;28;20030;-30
2022/02/22 05:02:51;;;;;;;1.63;0.65;;;;;;;25.81;26.90;96826.72;5010001;28;20033;-28
2022/02/22 05:05:17;;;;;;;1.10;0.50;;;;;;;25.82;26.82;96831.03;5009004;28;20036;-30
2022/02/22 05:07:42;;;;;;;3.17;0.75;;;;;;;25.82;26.92;96823.16;5005630;28;20040;-28
2022/02/22 05:10:08;;;;;;;1.42;0.45;;;;;;;25.82;26.89;96823.16;5012207;28;20025;-28
2022/02/22 05:12:34;;;;;;;1.60;0.70;;;;;;;25.82;26.91;96827.59;5007715;28;20183;-28
2022/02/22 05:14:59;;;;;;;1.15;0.57;;;;;;;25.81;26.74;96825.88;5005059;28;20029;-28
2022/02/22 05:17:24;;;;;;;2.15;1.15;;;;;;;25.80;26.91;96830.28;4999305;28;20511;-28
2022/02/22 05:19:50;;;;;;;1.75;0.77;;;;;;;25.81;26.84;96837.22;5004571;28;20064;-28
2022/02/22 05:22:15;;;;;;;1.38;0.60;;;;;;;25.81;26.88;96841.59;5004365;28;20105;-29
2022/02/22 05:24:41;;;;;;;1.70;0.57;;;;;;;25.80;26.84;96843.41;5004153;28;20029;-29
2022/02/22 05:27:06;;;;;;;0.80;0.40;;;;;;;25.80;26.77;96843.41;5000855;28;20018;-30
2022/02/22 05:29:32;;;;;;;1.25;0.57;;;;;;;25.80;26.86;96859.16;4993568;28;20022;-29
2022/02/22 05:31:57;;;;;;;1.90;0.60;;;;;;;25.78;26.81;96863.63;5005851;28;20016;-27
2022/02/22 05:34:22;;;;;;;1.75;0.60;;;;;;;25.79;26.95;96865.34;4988997;28;20480;-28
2022/02/22 05:36:49;;;;;;;1.60;0.65;;;;;;;25.80;26.85;96863.53;4999719;28;20087;-28
2022/02/22 05:39:14;;;;;;;0.88;0.50;;;;;;;25.79;26.97;96864.47;5002969;28;21846;-28
2022/02/22 05:41:39;;;;;;;1.80;0.60;;;;;;;25.78;27.00;96868.88;5005065;28;20071;-28
2022/02/22 05:44:05;;;;;;;1.45;0.80;;;;;;;25.78;26.83;96868.88;4986165;28;20480;-30
2022/02/22 05:46:30;;;;;;;3.33;0.60;;;;;;;25.78;26.85;96863.63;5004304;28;20991;-31
2022/02/22 05:48:56;;;;;;;1.25;0.60;;;;;;;25.78;26.85;96871.50;5004460;28;20038;-30
2022/02/22 05:51:21;;;;;;;1.00;0.50;;;;;;;25.77;26.93;96864.56;4998738;28;20021;-29
2022/02/22 05:53:48;;;;;;;1.67;0.77;;;;;;;25.78;26.87;96873.28;4999181;28;20026;-31
2022/02/22 05:56:13;;;;;;;2.58;0.60;;;;;;;25.77;26.81;96875.06;5000309;28;20122;-29
2022/02/22 05:58:39;;;;;;;1.30;0.60;;;;;;;25.78;26.88;96875.91;4987657;28;20037;-30
2022/02/22 06:01:04;;;;;;;2.08;0.50;;;;;;;25.78;26.78;96889.03;5003473;28;20029;-28
2022/02/22 06:03:30;;;;;;;1.88;0.68;;;;;;;25.77;26.82;96888.19;5004299;28;20026;-30
2022/02/22 06:05:56;;;;;;;1.65;0.55;;;;;;;25.77;27.00;96896.06;4997889;28;20067;-30
2022/02/22 06:08:21;;;;;;;2.38;0.57;;;;;;;25.77;27.00;96892.56;5001539;28;20057;-31
2022/02/22 06:10:48;;;;;;;1.27;0.60;;;;;;;25.78;27.07;96899.53;4999226;28;20392;-28
2022/02/22 06:13:14;;;;;;;1.50;0.80;;;;;;;25.78;26.75;96905.63;5005746;28;20048;-30
2022/02/22 06:15:39;;;;;;;2.40;0.50;;;;;;;25.78;27.02;96897.75;5007223;28;20136;-30
2022/02/22 06:18:05;;;;;;;1.75;0.50;;;;;;;25.78;27.04;96902.16;5007520;28;20041;-30
2022/02/22 06:20:32;;;;;;;0.82;0.50;;;;;;;25.78;26.77;96905.63;5005909;28;20029;-29
2022/02/22 06:22:58;;;;;;;1.13;0.70;;;;;;;25.78;27.02;96908.25;5002770;28;20033;-29
2022/02/22 06:25:26;;;;;;;2.83;0.80;;;;;;;25.77;26.82;96903.94;5009285;28;20025;-27
2022/02/22 06:27:52;;;;;;;2.03;0.95;;;;;;;25.77;26.97;96914.44;5002392;28;20042;-30
2022/02/22 06:30:19;;;;;;;1.17;0.60;;;;;;;25.78;26.82;96910.03;5008216;28;20438;-30
2022/02/22 06:32:44;;;;;;;2.17;0.80;;;;;;;25.78;27.05;96910.03;5014481;28;20029;-28
2022/02/22 06:35:10;;;;;;;1.65;0.55;;;;;;;25.78;26.98;96918.75;5011131;28;20049;-29
2022/02/22 06:37:36;;;;;;;1.73;0.63;;;;;;;25.78;26.86;96913.50;5012515;28;20040;-28
2022/02/22 06:40:01;;;;;;;1.73;0.70;;;;;;;25.78;26.88;96916.13;5014252;28;20033;-30
2022/02/22 06:42:27;;;;;;;1.02;0.55;;;;;;;25.79;26.79;96933.59;5014041;28;20079;-29
2022/02/22 06:44:52;;;;;;;1.02;0.63;;;;;;;25.78;26.84;96926.63;5015306;28;20036;-32
2022/02/22 06:47:18;;;;;;;0.60;0.55;;;;;;;25.78;26.99;96931.88;5015537;28;20036;-32
2022/02/22 06:49:43;;;;;;;4.00;0.73;;;;;;;25.79;26.86;96943.22;5014411;28;20030;-32
2022/02/22 06:52:08;;;;;;;0.65;0.50;;;;;;;25.78;27.00;96947.63;5017963;28;20400;-30
2022/02/22 06:54:34;;;;;;;1.13;0.65;;;;;;;25.78;26.85;96958.13;5015994;28;20502;-28
2022/02/22 06:56:59;;;;;;;1.42;0.70;;;;;;;25.79;26.92;96949.34;5015421;28;20030;-31
2022/02/22 06:59:25;;;;;;;1.70;0.50;;;;;;;25.80;26.92;96955.41;5012365;28;20499;-29
2022/02/22 07:01:50;;;;;;;1.60;0.60;;;;;;;25.79;26.99;96961.59;5015493;28;20032;-30
2022/02/22 07:04:15;;;;;;;3.47;1.50;;;;;;;25.79;26.92;96966.84;5010074;28;20395;-28
2022/02/22 07:06:41;;;;;;;10.38;1.20;;;;;;;25.78;26.70;96973.88;4996609;28;20025;-26
2022/02/22 07:09:06;;;;;;;2.72;1.02;;;;;;;25.78;26.70;96979.13;5004664;28;20410;-29
2022/02/22 07:11:32;;;;;;;5.63;1.48;;;;;;;25.79;26.76;96974.72;5004049;28;20030;-28
2022/02/22 07:13:57;;;;;;;11.80;2.83;;;;;;;25.79;26.82;96986.09;5007828;28;20151;-29
2022/02/22 07:16:23;;;;;;;10.50;3.20;;;;;;;25.78;26.85;96994.88;5002160;28;20507;-27
2022/02/22 07:18:48;;;;;;;9.15;3.33;;;;;;;25.79;26.93;96998.34;4997312;28;20026;-28
2022/02/22 07:21:14;;;;;;;14.65;3.35;;;;;;;25.79;26.88;96996.59;5005184;28;20022;-30
2022/02/22 07:23:39;;;;;;;10.82;3.28;;;;;;;25.80;26.88;97008.78;4996382;28;20088;-28
2022/02/22 07:26:05;;;;;;;12.50;3.35;;;;;;;25.81;27.03;97015.72;5004197;28;20171;-28
2022/02/22 07:28:30;;;;;;;9.57;3.50;;;;;;;25.82;27.00;97022.66;4989780;28;20049;-25
2022/02/22 07:30:56;;;;;;;11.75;3.63;;;;;;;25.84;27.02;97027.84;5007764;28;20086;-29
2022/02/22 07:33:21;;;;;;;7.43;3.50;;;;;;;25.86;27.09;97027.78;5004756;28;20403;-30
2022/02/22 07:35:47;;;;;;;7.82;3.60;;;;;;;25.86;27.16;97038.28;4999004;28;20037;-29
2022/02/22 07:38:12;;;;;;;9.55;3.35;;;;;;;25.87;27.10;97039.97;4986132;28;22248;-31
2022/02/22 07:40:38;;;;;;;9.13;3.47;;;;;;;25.88;27.14;97042.53;4998251;28;20033;-29
2022/02/22 07:43:03;;;;;;;9.90;3.22;;;;;;;25.90;27.13;97040.66;4999851;28;20064;-30
2022/02/22 07:45:29;;;;;;;10.23;3.22;;;;;;;25.91;27.10;97050.25;4998283;28;20033;-29
2022/02/22 07:47:54;;;;;;;8.30;3.10;;;;;;;25.92;27.30;97048.47;4999535;28;20044;-31
2022/02/22 07:50:20;;;;;;;12.15;2.90;;;;;;;25.92;27.08;97053.72;4999440;28;20032;-32
2022/02/22 07:52:46;;;;;;;9.93;2.53;;;;;;;25.92;26.47;97058.97;4998009;28;20033;-29
2022/02/22 07:55:11;;;;;;;13.85;2.85;;;;;;;25.90;25.65;97060.84;4995692;28;20075;-29
2022/02/22 07:57:37;;;;;;;11.63;2.75;;;;;;;25.85;25.58;97057.59;4996353;28;20574;-31
2022/02/22 08:00:04;;;;;;;7.35;2.63;;;;;;;25.81;25.04;97057.72;4997038;28;20029;-30
2022/02/22 08:02:29;;;;;;;7.93;2.70;;;;;;;25.79;24.59;97069.22;4998094;28;20641;-31
2022/02/22 08:04:54;;;;;;;9.35;2.97;;;;;;;25.74;24.17;97085.19;4997667;28;20052;-30
2022/02/22 08:07:23;;;;;;;10.30;2.80;;;;;;;25.71;24.30;97093.25;4996913;28;20051;-29
2022/02/22 08:09:48;;;;;;;9.13;2.75;;;;;;;25.68;24.20;97098.63;4996374;28;20040;-32
2022/02/22 08:12:14;;;;;;;9.45;2.60;;;;;;;25.64;24.14;97090.06;4993976;28;20156;-30
2022/02/22 08:14:39;;;;;;;8.70;2.70;;;;;;;25.62;24.14;97096.31;4997074;28;20435;-28
2022/02/22 08:17:05;;;;;;;7.45;2.47;;;;;;;25.60;24.19;97106.00;4997596;28;20435;-31
2022/02/22 08:19:30;;;;;;;7.05;2.40;;;;;;;25.59;23.98;97109.56;4983738;28;20044;-29
2022/02/22 08:21:56;;;;;;;6.95;2.42;;;;;;;25.57;24.04;97115.75;4996227;28;20656;-29
2022/02/22 08:24:24;;;;;;;7.75;2.80;;;;;;;25.54;23.80;97118.47;4981678;28;20152;-30
2022/02/22 08:26:54;;;;;;;6.35;2.20;;;;;;;25.53;23.84;97116.78;4998113;28;20648;-29
2022/02/22 08:29:20;;;;;;;7.82;2.90;;;;;;;25.52;23.69;97125.53;4978903;28;20124;-25
2022/02/22 08:31:46;;;;;;;7.30;2.58;;;;;;;25.52;23.73;97129.97;4998550;28;20048;-32
2022/02/22 08:34:11;;;;;;;5.95;2.28;;;;;;;25.48;23.66;97124.03;4998297;28;22095;-30
2022/02/22 08:36:36;;;;;;;7.78;2.08;;;;;;;25.49;24.37;97120.47;4998081;28;20029;-29
2022/02/22 08:39:02;;;;;;;11.20;2.50;;;;;;;25.50;24.62;97122.16;5003118;28;20026;-29
2022/02/22 08:41:27;;;;;;;5.95;2.28;;;;;;;25.53;25.02;97132.53;5002647;28;20042;-29
2022/02/22 08:43:53;;;;;;;7.40;2.10;;;;;;;25.57;25.27;97138.50;4996657;28;20029;-31
2022/02/22 08:46:19;;;;;;;7.40;1.73;;;;;;;25.60;25.40;97127.00;4999181;28;20432;-30
2022/02/22 08:48:44;;;;;;;5.93;1.75;;;;;;;25.64;25.79;97136.44;4996289;28;20029;-31
2022/02/22 08:51:10;;;;;;;5.05;2.00;;;;;;;25.68;25.92;97130.13;4998209;28;20029;-29
2022/02/22 08:53:35;;;;;;;3.90;1.83;;;;;;;25.70;26.01;97129.13;4998158;28;20391;-30
2022/02/22 08:56:02;;;;;;;3.83;2.00;;;;;;;25.74;26.15;97132.44;4997672;28;20038;-28
2022/02/22 08:58:27;;;;;;;4.32;1.83;;;;;;;25.77;26.33;97131.44;4999999;28;20116;-30
2022/02/22 09:00:53;;;;;;;4.72;1.92;;;;;;;25.79;26.38;97133.09;4991574;28;20403;-32
2022/02/22 09:03:18;;;;;;;4.05;1.83;;;;;;;25.82;26.47;97132.94;4993195;28;20037;-29
2022/02/22 09:05:44;;;;;;;5.65;2.00;;;;;;;25.85;26.62;97131.09;4998508;28;20171;-27
2022/02/22 09:08:09;;;;;;;5.80;2.10;;;;;;;25.87;26.51;97140.59;4995794;28;20397;-27
2022/02/22 09:10:34;;;;;;;4.00;1.70;;;;;;;25.89;26.62;97127.41;4995445;28;20042;-32
2022/02/22 09:13:00;;;;;;;5.57;1.90;;;;;;;25.91;26.52;97138.66;4998845;28;20392;-30
2022/02/22 09:15:27;;;;;;;12.02;2.63;;;;;;;25.80;23.15;97134.78;4975349;28;20022;-31
2022/02/22 09:17:52;;;;;;;8.40;2.67;;;;;;;25.60;21.54;97140.13;5001294;28;20116;-35
2022/02/22 09:20:19;;;;;;;9.45;2.40;;;;;;;25.36;21.13;97148.19;5007232;28;20052;-31
2022/02/22 09:22:44;;;;;;;6.85;2.45;;;;;;;25.15;21.65;97146.47;5007492;28;20037;-29
2022/02/22 09:25:12;;;;;;;8.75;2.42;;;;;;;25.01;22.08;97152.31;5010962;28;20029;-28
2022/02/22 09:27:42;;;;;;;12.10;2.80;;;;;;;24.92;22.42;97142.25;5003005;28;20033;-32
2022/02/22 09:30:08;;;;;;;10.68;3.00;;;;;;;24.88;22.78;97138.03;5004026;28;20355;-31
2022/02/22 09:32:34;;;;;;;6.97;2.60;;;;;;;24.86;22.97;97132.88;5002736;28;20037;-28
2022/02/22 09:34:59;;;;;;;6.88;2.40;;;;;;;24.87;23.17;97138.97;4999238;28;20500;-28
2022/02/22 09:37:24;;;;;;;9.43;2.60;;;;;;;24.90;23.31;97144.09;4995365;28;20664;-29
2022/02/22 09:39:50;;;;;;;6.32;2.53;;;;;;;24.93;23.52;97143.94;4995951;28;20326;-29
2022/02/22 09:42:15;;;;;;;10.05;2.53;;;;;;;24.96;23.60;97146.44;4997260;28;20052;-31
2022/02/22 09:44:41;;;;;;;6.93;2.45;;;;;;;25.01;23.74;97151.44;4998157;28;20033;-32
2022/02/22 09:47:07;;;;;;;8.20;2.90;;;;;;;25.04;23.99;97154.81;4988381;28;20705;-32
2022/02/22 09:49:33;;;;;;;9.90;2.80;;;;;;;25.09;24.16;97143.28;5003000;28;20029;-33
2022/02/22 09:51:58;;;;;;;9.38;2.65;;;;;;;25.15;24.19;97156.09;5009527;28;20040;-33
2022/02/22 09:54:24;;;;;;;11.70;2.60;;;;;;;25.20;24.28;97151.50;5012150;28;20045;-31
2022/02/22 09:56:50;;;;;;;12.02;2.63;;;;;;;25.23;24.10;97151.38;5010308;28;20095;-33
2022/02/22 09:59:17;;;;;;;9.40;2.78;;;;;;;25.27;24.28;97150.31;5013551;28;20053;-34
2022/02/22 10:01:43;;;;;;;6.68;2.50;;;;;;;25.31;24.42;97146.63;5010987;28;20038;-33
2022/02/22 10:04:09;;;;;;;7.20;2.67;;;;;;;25.36;24.51;97150.81;5008980;28;20057;-30
2022/02/22 10:06:35;;;;;;;8.00;2.53;;;;;;;25.39;24.29;97158.53;4994773;28;20129;-33
2022/02/22 10:09:00;;;;;;;7.38;2.70;;;;;;;25.40;24.73;97155.84;5003592;28;20131;-30
2022/02/22 10:11:26;;;;;;;6.93;2.40;;;;;;;25.41;24.94;97159.31;5013885;28;20037;-32
2022/02/22 10:13:51;;;;;;;5.95;2.15;;;;;;;25.42;25.26;97150.53;5018067;28;20526;-31
2022/02/22 10:16:17;;;;;;;8.25;2.55;;;;;;;25.45;25.15;97150.38;5012043;28;20032;-30
2022/02/22 10:18:46;;;;;;;6.28;2.03;;;;;;;25.54;25.25;97156.97;5007719;28;20037;-28
2022/02/22 10:21:11;;;;;;;7.20;2.20;;;;;;;25.63;25.19;97151.31;5008167;28;20025;-29
2022/02/22 10:23:37;;;;;;;7.80;2.22;;;;;;;25.75;25.06;97141.19;5009290;28;20071;-31
2022/02/22 10:26:02;;;;;;;6.30;2.03;;;;;;;25.87;25.04;97145.84;5008046;28;20631;-33
2022/02/22 10:28:27;;;;;;;5.32;2.20;;;;;;;25.99;25.03;97144.41;5007844;28;20058;-30
2022/02/22 10:30:54;;;;;;;4.30;1.92;;;;;;;26.13;24.71;97146.38;5003810;28;20053;-30
2022/02/22 10:33:19;;;;;;;5.20;2.30;;;;;;;26.27;24.53;97143.06;5006382;28;20090;-33
2022/02/22 10:36:04;;;;;;;5.15;2.05;;;;;;;26.41;24.59;97144.16;5010775;28;20045;-32
2022/02/22 10:38:31;;;;;;;4.18;1.80;;;;;;;26.56;24.52;97143.41;5005960;28;20076;-33
2022/02/22 10:41:01;;;;;;;4.97;2.08;;;;;;;26.70;24.35;97141.84;5005117;28;20037;-32
2022/02/22 10:43:32;;;;;;;4.78;2.05;;;;;;;26.82;24.31;97148.25;5013400;28;20033;-32
2022/02/22 10:46:00;;;;;;;5.17;2.57;;;;;;;26.94;24.22;97149.38;5004023;28;20044;-29
2022/02/22 10:48:35;;;;;;;4.68;2.00;;;;;;;27.06;24.06;97151.41;4998633;28;20026;-30
2022/02/22 10:51:01;;;;;;;5.78;2.10;;;;;;;27.17;24.03;97152.59;4999122;28;20030;-31
2022/02/22 10:53:36;;;;;;;5.70;2.35;;;;;;;27.25;23.84;97153.91;4991929;28;20029;-32
2022/02/22 10:56:04;;;;;;;3.60;1.80;;;;;;;27.36;23.80;97161.22;5004853;28;20025;-34
2022/02/22 10:58:30;;;;;;;4.70;2.17;;;;;;;27.44;23.68;97159.94;5010052;28;20082;-30
2022/02/22 11:00:56;;;;;;;4.05;1.65;;;;;;;27.52;23.61;97158.63;5012330;28;20029;-29
2022/02/22 11:03:21;;;;;;;3.55;1.60;;;;;;;27.61;23.67;97161.72;5011301;28;20033;-34
2022/02/22 11:05:48;;;;;;;3.72;1.60;;;;;;;27.68;23.66;97162.22;5009376;28;20026;-37
2022/02/22 11:08:14;;;;;;;4.50;1.67;;;;;;;27.72;23.52;97154.06;5008232;28;20619;-31
2022/02/22 11:10:45;;;;;;;4.72;2.00;;;;;;;27.77;23.63;97151.19;5007514;28;20033;-34
2022/02/22 11:13:10;;;;;;;3.97;2.08;;;;;;;27.82;23.38;97158.81;4998341;28;20033;-31
2022/02/22 11:15:37;;;;;;;3.25;1.80;;;;;;;27.85;23.53;97148.09;4993972;28;20184;-31
2022/02/22 11:18:14;;;;;;;7.75;2.08;;;;;;;27.87;23.60;97149.72;4986852;28;20095;-32
2022/02/22 11:20:41;;;;;;;6.82;1.80;;;;;;;27.90;23.49;97151.34;4984033;28;20045;-31
2022/02/22 11:23:09;;;;;;;5.05;1.70;;;;;;;27.90;23.59;97151.34;5001261;28;20498;-31
2022/02/22 11:25:36;;;;;;;3.90;1.60;;;;;;;27.90;23.63;97146.94;5006053;28;20053;-33